Beerse, Belgium
Current Conditions -  °F | °C
As of 2:25 AM on Monday 24 Nov 2014 (Local Time) from EHGR Reporting Station
Light Rain Light Rain  
Wind Chill:   Ceiling: 600
Heat Index:   Visibility: 6mi
Dew Point:   Wind: 6mph
Humidity: 100%   Direction: 280°W
Pressure: 30.06"   Gusts: NA
Location:  51.32°N, 4.85°E
Report Text: EHGR 240125Z AUTO 28005KT 9999 -RA FEW005 OVC006 09/09 Q1018 YLO
Loading
Personal Weather Stations






























Interactive Weather Map New forecast layout! Learn more

10-Day Weather Forecast

Advertisements
Track Severe Weather on mobile